Rose City, MI

1:29 PM EST on February 12, 2016 (GMT -0500)
Rose Township | | Change Station
CLOSE
Current Station
Personal Weather Station
Location: Lupton, MI
Elevation: 922 ft
Nearby Weather Stations

Elev 922 ft 44.43 °N, 84.01 °W | Updated 10 seconds ago

Overcast
Overcast
16.7 °F
Feels Like 11 °F
N
3.8
Wind Variable Wind from North
Gusts 11.4 mph

Today
High -- | Low -- °F
--% Chance of Precip.
Yesterday
High -- | Low -- °F
Precip. -- in
Pressure 29.90 in
Visibility 2.0 miles
Clouds Mostly Cloudy 3400 ft
Windchill 11 °F
Dew Point 13 °F
Humidity 86%
Rainfall 0.00 in
Snow Depth Not available.
7:41 AM 6:00 PM
Waxing Crescent, 22% visible
SPECI KHTL 121827Z AUTO 29016G26KT 2SM -SN BKN034 M08/M15 A2990 RMK AO2 PK WND 30026/1819 SNE00B19 P0000 T10831150
Pressure 29.90 in
Visibility 2.0 miles
Clouds Mostly Cloudy 3400 ft
Windchill 11 °F
Dew Point 13 °F
Humidity 86%
Rainfall 0.00 in
Snow Depth Not available.
7:41 AM 6:00 PM
Waxing Crescent, 22% visible
SPECI KHTL 121827Z AUTO 29016G26KT 2SM -SN BKN034 M08/M15 A2990 RMK AO2 PK WND 30026/1819 SNE00B19 P0000 T10831150

10-Day Weather Forecast

Almanac

Astronomy

Feb. 12, 2016 Rise Set
Actual Time
Civil Twilight
Nautical Twilight
Astronomical Twilight
Moon
Length of Visible Light
Length of Day
Tomorrow will be .
, % of the Moon is Illuminated

Today's Extremes

State Highs State Lows

Community

WunderPhotos

Upload Photos

1,892,364 photos uploaded!

WunderBlog® & News

Nearby

Air Quality

  Air Quality AQ Index Pollutant
Not available.

Snow Depth

Station Depth Elevation

Earthquake Activity

City Distance Mag. Time & Date
Minimum magnitude displayed is 2.5.

Coastal Water Temperatures

Place Temperature

Stations

Nearby Weather Stations

Station Location Temp. Windchill Dew Point Humidity Wind Precip. Elev Updated Type
                   

Watches & Warnings

There are currently no watches in effect.